Time;durP1;ratioP1;P1;durP2;ratioP2;P2;SDS_P1;SDS_P2;PMS_P1;PMS_P2;Temp;Humidity;BMP_temperature;BMP_pressure;BME280_temperature;BME280_humidity;BME280_pressure;Samples;Min_cycle;Max_cycle;Signal;HPM_P1;HPM_P2
2021/05/16 00:02:06;;;;;;;40.77;24.07;;;;;;;22.28;40.90;99648.53;5115695;28;20449;-49
2021/05/16 00:04:33;;;;;;;16.40;11.03;;;;;;;22.35;40.70;99644.88;5114466;27;20564;-50
2021/05/16 00:07:00;;;;;;;21.63;14.37;;;;;;;22.29;41.03;99647.66;5115297;28;20536;-51
2021/05/16 00:09:28;;;;;;;14.53;10.97;;;;;;;22.12;40.47;99639.28;5114747;27;20473;-49
2021/05/16 00:11:55;;;;;;;32.13;19.90;;;;;;;22.04;40.82;99643.84;5115546;28;20777;-51
2021/05/16 00:14:23;;;;;;;19.33;13.17;;;;;;;22.23;40.40;99643.41;5114449;27;21023;-54
2021/05/16 00:16:50;;;;;;;39.73;24.47;;;;;;;22.08;40.93;99635.00;5115146;28;20489;-50
2021/05/16 00:19:18;;;;;;;33.23;21.07;;;;;;;22.19;41.06;99632.09;5114246;27;20465;-51
2021/05/16 00:21:46;;;;;;;13.57;10.20;;;;;;;21.83;40.81;99634.69;5115332;28;20467;-55
2021/05/16 00:24:13;;;;;;;14.70;10.23;;;;;;;21.79;40.88;99640.94;5113943;28;20549;-53
2021/05/16 00:26:40;;;;;;;20.70;14.70;;;;;;;22.03;41.14;99630.75;5114787;28;20448;-55
2021/05/16 00:29:07;;;;;;;15.57;10.53;;;;;;;21.62;41.14;99639.50;5115318;28;20487;-51
2021/05/16 00:31:35;;;;;;;14.03;10.50;;;;;;;21.64;40.99;99634.22;5119385;28;20505;-48
2021/05/16 00:34:03;;;;;;;12.80;9.23;;;;;;;21.61;41.13;99639.53;5118380;27;20544;-49
2021/05/16 00:36:31;;;;;;;15.03;10.67;;;;;;;21.62;41.24;99636.00;5118645;28;20487;-52
2021/05/16 00:38:58;;;;;;;18.90;12.87;;;;;;;21.76;41.13;99633.13;5117735;28;20495;-50
2021/05/16 00:41:25;;;;;;;13.10;10.30;;;;;;;21.37;41.58;99637.41;5118942;28;20506;-52
2021/05/16 00:43:53;;;;;;;13.97;9.70;;;;;;;21.49;41.09;99630.16;5117683;28;20467;-50
2021/05/16 00:46:20;;;;;;;21.10;14.07;;;;;;;21.67;41.27;99635.03;5118712;28;20453;-53
2021/05/16 00:48:47;;;;;;;17.40;12.00;;;;;;;21.84;40.79;99631.19;5117418;28;20567;-52
2021/05/16 00:51:14;;;;;;;28.57;17.13;;;;;;;21.81;41.85;99632.13;5118491;28;20483;-52
2021/05/16 00:53:42;;;;;;;19.73;12.90;;;;;;;21.49;42.03;99640.66;5117562;28;20453;-53
2021/05/16 00:56:10;;;;;;;21.37;13.80;;;;;;;21.75;41.39;99626.13;5118472;28;20477;-49
2021/05/16 00:58:37;;;;;;;17.03;11.20;;;;;;;21.59;41.61;99621.22;5117259;28;20479;-57
2021/05/16 01:01:08;;;;;;;15.07;9.90;;;;;;;21.59;41.23;99621.22;5118529;28;20579;-48
2021/05/16 01:03:36;;;;;;;13.70;10.43;;;;;;;21.62;41.14;99621.13;5118746;28;20568;-53
2021/05/16 01:06:04;;;;;;;17.67;9.93;;;;;;;21.58;41.07;99619.47;5118132;28;20460;-50
2021/05/16 01:08:31;;;;;;;20.27;14.20;;;;;;;21.82;41.15;99617.22;5118060;28;20552;-52
2021/05/16 01:10:59;;;;;;;13.27;9.90;;;;;;;21.60;40.94;99620.31;5116830;28;20476;-50
2021/05/16 01:13:26;;;;;;;20.50;13.40;;;;;;;21.82;41.37;99614.59;5118445;28;21000;-53
2021/05/16 01:15:54;;;;;;;18.40;11.70;;;;;;;21.87;40.53;99611.84;5117420;28;20481;-50
2021/05/16 01:18:21;;;;;;;22.87;15.27;;;;;;;22.13;41.06;99616.50;5117912;28;20801;-53
2021/05/16 01:20:50;;;;;;;18.77;12.83;;;;;;;22.14;40.68;99607.72;5116860;27;20485;-49
2021/05/16 01:23:22;;;;;;;19.37;14.60;;;;;;;21.86;41.56;99605.75;5118077;28;20551;-52
2021/05/16 01:25:49;;;;;;;15.27;10.40;;;;;;;21.51;41.05;99607.38;5116524;28;20495;-50
2021/05/16 01:28:19;;;;;;;19.67;13.07;;;;;;;21.44;41.24;99604.88;5117613;28;20560;-51
2021/05/16 01:30:47;;;;;;;15.10;11.00;;;;;;;21.54;41.02;99608.16;5116713;28;20833;-55
2021/05/16 01:33:15;;;;;;;19.30;11.90;;;;;;;21.43;41.52;99610.19;5117960;28;20547;-52
2021/05/16 01:35:42;;;;;;;15.90;10.13;;;;;;;21.32;41.62;99613.03;5116789;28;20511;-55
2021/05/16 01:38:11;;;;;;;15.10;10.43;;;;;;;21.51;40.89;99612.63;5117731;28;20488;-49
2021/05/16 01:40:40;;;;;;;14.40;10.23;;;;;;;21.59;41.54;99613.34;5115558;28;20473;-51
2021/05/16 01:43:08;;;;;;;17.50;10.80;;;;;;;21.81;40.48;99612.88;5117722;28;20469;-48
2021/05/16 01:45:35;;;;;;;16.53;9.37;;;;;;;21.69;40.32;99617.50;5116526;28;20487;-50
2021/05/16 01:48:03;;;;;;;18.03;10.67;;;;;;;21.70;40.37;99608.72;5117038;28;20760;-52
2021/05/16 01:50:32;;;;;;;15.07;10.17;;;;;;;21.79;40.45;99607.66;5113652;28;20485;-50
2021/05/16 01:53:00;;;;;;;14.00;10.20;;;;;;;21.92;40.29;99603.00;5117497;28;20555;-51
2021/05/16 01:55:28;;;;;;;13.93;9.33;;;;;;;22.03;40.52;99607.09;5116322;27;20515;-50
2021/05/16 01:57:56;;;;;;;14.80;10.30;;;;;;;21.92;40.32;99608.25;5117391;28;20485;-53
2021/05/16 02:00:26;;;;;;;15.57;11.30;;;;;;;22.02;40.69;99608.00;5116296;27;20483;-51
2021/05/16 02:02:54;;;;;;;17.00;11.93;;;;;;;21.97;41.16;99606.38;5117503;28;20461;-51
2021/05/16 02:05:21;;;;;;;14.40;10.43;;;;;;;22.01;39.94;99606.28;5116111;27;20568;-51
2021/05/16 02:07:49;;;;;;;14.50;9.40;;;;;;;22.02;40.56;99605.38;5116950;28;20469;-53
2021/05/16 02:10:17;;;;;;;9.80;7.70;;;;;;;21.54;40.60;99608.16;5116064;27;20491;-51
2021/05/16 02:12:44;;;;;;;12.17;9.43;;;;;;;22.02;39.93;99602.75;5117249;28;20464;-49
2021/05/16 02:15:14;;;;;;;15.33;10.10;;;;;;;21.84;41.18;99604.94;5115817;27;20557;-56
2021/05/16 02:17:42;;;;;;;12.80;9.17;;;;;;;21.93;39.85;99609.09;5116680;28;20512;-52
2021/05/16 02:20:11;;;;;;;13.97;9.60;;;;;;;21.83;40.63;99618.94;5115477;27;20918;-50
2021/05/16 02:22:38;;;;;;;15.53;9.37;;;;;;;22.05;40.77;99613.19;5117010;28;20762;-50
2021/05/16 02:25:07;;;;;;;11.13;8.70;;;;;;;21.84;40.99;99612.81;5115612;27;20481;-50
2021/05/16 02:27:35;;;;;;;12.23;8.70;;;;;;;21.29;41.18;99615.72;5116681;28;20449;-53
2021/05/16 02:30:04;;;;;;;13.73;9.50;;;;;;;21.66;41.31;99616.69;5115466;27;20559;-50
2021/05/16 02:32:32;;;;;;;11.80;8.80;;;;;;;21.58;41.07;99612.47;5116726;28;20488;-51
2021/05/16 02:34:59;;;;;;;13.30;9.80;;;;;;;21.73;41.13;99612.19;5115629;28;20930;-50
2021/05/16 02:37:26;;;;;;;12.47;9.33;;;;;;;21.77;41.21;99605.97;5116254;28;20476;-55
2021/05/16 02:39:53;;;;;;;13.37;10.03;;;;;;;21.81;41.56;99607.63;5115622;28;20480;-52
2021/05/16 02:42:20;;;;;;;13.63;8.97;;;;;;;21.92;41.53;99610.00;5116778;28;20467;-49
2021/05/16 02:44:47;;;;;;;12.40;8.20;;;;;;;21.88;40.40;99603.97;5115359;28;20580;-53
2021/05/16 02:47:14;;;;;;;12.67;8.93;;;;;;;22.07;40.54;99603.50;5116147;28;20555;-52
2021/05/16 02:49:42;;;;;;;11.20;8.90;;;;;;;22.02;40.26;99608.88;5115180;28;20481;-53
2021/05/16 02:52:10;;;;;;;14.27;8.30;;;;;;;21.74;40.63;99608.66;5116487;28;20484;-53
2021/05/16 02:54:37;;;;;;;10.97;8.30;;;;;;;21.83;40.19;99600.56;5115421;28;20786;-53
2021/05/16 02:57:05;;;;;;;10.47;7.37;;;;;;;21.95;40.27;99599.44;5116012;28;20484;-53
2021/05/16 02:59:32;;;;;;;10.93;7.83;;;;;;;21.89;40.78;99603.06;5115227;28;20475;-52
2021/05/16 03:01:59;;;;;;;12.83;9.20;;;;;;;21.79;41.08;99602.41;5116331;28;20453;-53
2021/05/16 03:04:27;;;;;;;12.17;8.43;;;;;;;21.94;40.44;99595.09;5115272;28;20533;-53
2021/05/16 03:06:55;;;;;;;11.87;8.33;;;;;;;21.75;40.93;99602.50;5116075;28;20487;-52
2021/05/16 03:09:22;;;;;;;11.30;8.27;;;;;;;21.80;40.76;99598.03;5114924;28;20479;-51
2021/05/16 03:11:49;;;;;;;14.63;9.10;;;;;;;21.95;40.51;99600.28;5116288;28;20453;-52
2021/05/16 03:14:18;;;;;;;12.37;8.30;;;;;;;21.81;40.20;99605.00;5115017;28;20472;-53
2021/05/16 03:16:45;;;;;;;22.60;9.50;;;;;;;21.77;41.13;99609.47;5115713;28;20751;-49
2021/05/16 03:19:12;;;;;;;12.50;8.83;;;;;;;21.66;41.86;99607.06;5114670;28;20894;-53
2021/05/16 03:21:39;;;;;;;12.70;8.73;;;;;;;21.97;40.49;99600.25;5116258;28;20456;-51
2021/05/16 03:24:08;;;;;;;11.10;8.60;;;;;;;21.97;40.32;99601.13;5114933;28;20557;-51
2021/05/16 03:26:35;;;;;;;10.80;8.33;;;;;;;22.10;40.16;99606.09;5115755;28;20452;-51
2021/05/16 03:29:04;;;;;;;13.20;8.70;;;;;;;21.94;40.90;99600.34;5114270;28;20499;-51
2021/05/16 03:31:31;;;;;;;11.73;8.83;;;;;;;22.08;40.41;99602.63;5115849;28;20878;-48
2021/05/16 03:33:58;;;;;;;10.47;7.60;;;;;;;21.74;40.33;99603.41;5114966;28;20472;-53
2021/05/16 03:36:25;;;;;;;12.20;8.10;;;;;;;21.74;40.37;99598.16;5115582;28;20528;-48
2021/05/16 03:38:52;;;;;;;10.70;8.07;;;;;;;22.07;40.60;99603.50;5114613;28;20944;-54
2021/05/16 03:41:21;;;;;;;13.83;8.60;;;;;;;21.97;40.40;99595.88;5115724;28;20464;-51
2021/05/16 03:43:49;;;;;;;12.10;8.40;;;;;;;22.04;40.16;99598.34;5114354;28;20468;-51
2021/05/16 03:46:16;;;;;;;13.67;8.90;;;;;;;22.15;40.12;99593.69;5115952;28;20488;-54
2021/05/16 03:48:44;;;;;;;14.07;9.60;;;;;;;22.06;39.95;99593.91;5114318;28;20500;-51
2021/05/16 03:51:11;;;;;;;12.03;7.60;;;;;;;21.81;40.21;99589.25;5115568;28;20850;-50
2021/05/16 03:53:38;;;;;;;13.07;9.13;;;;;;;22.03;40.01;99589.59;5114601;28;20464;-52
2021/05/16 03:56:06;;;;;;;14.70;9.50;;;;;;;22.03;40.67;99583.47;5115724;28;20481;-51
2021/05/16 03:58:34;;;;;;;12.57;8.50;;;;;;;22.06;40.47;99596.53;5115146;28;20491;-50
2021/05/16 04:01:01;;;;;;;13.10;8.60;;;;;;;22.03;40.55;99580.84;5114422;28;20487;-51
2021/05/16 04:03:28;;;;;;;12.97;7.70;;;;;;;22.10;40.64;99595.59;5115855;28;20488;-56
2021/05/16 04:05:55;;;;;;;9.93;7.83;;;;;;;22.29;39.86;99595.97;5118531;28;20560;-49
2021/05/16 04:08:23;;;;;;;13.23;7.87;;;;;;;21.83;40.33;99597.94;5119396;28;20810;-53
2021/05/16 04:10:50;;;;;;;10.87;7.30;;;;;;;21.97;39.97;99598.50;5118661;27;20481;-49
2021/05/16 04:13:17;;;;;;;9.80;6.90;;;;;;;21.64;40.54;99597.50;5119497;28;20453;-52
2021/05/16 04:15:45;;;;;;;10.37;7.53;;;;;;;21.59;40.52;99606.31;5118476;28;20564;-51
2021/05/16 04:18:12;;;;;;;9.77;6.67;;;;;;;21.67;40.41;99607.91;5119170;28;20563;-50
2021/05/16 04:20:39;;;;;;;8.90;6.90;;;;;;;21.13;41.35;99610.78;5118293;28;20476;-53
2021/05/16 04:23:06;;;;;;;11.20;8.13;;;;;;;21.05;42.03;99599.59;5119005;28;20452;-56
2021/05/16 04:25:33;;;;;;;14.87;9.53;;;;;;;21.46;41.19;99604.88;5117998;28;20917;-52
2021/05/16 04:28:00;;;;;;;26.03;13.90;;;;;;;21.36;41.16;99598.94;5119224;28;20651;-53
2021/05/16 04:30:28;;;;;;;12.37;8.77;;;;;;;21.77;40.29;99605.97;5118131;28;20477;-51
2021/05/16 04:32:55;;;;;;;12.83;7.60;;;;;;;21.41;41.12;99602.34;5119147;28;20462;-51
2021/05/16 04:35:23;;;;;;;17.23;7.30;;;;;;;21.07;41.87;99610.06;5117840;28;20487;-50
2021/05/16 04:37:50;;;;;;;17.33;11.40;;;;;;;21.27;41.63;99599.16;5118679;28;20575;-51
2021/05/16 04:40:17;;;;;;;17.77;11.30;;;;;;;21.31;41.72;99608.66;5117868;28;20568;-54
2021/05/16 04:42:44;;;;;;;11.33;8.17;;;;;;;21.06;41.81;99608.31;5119108;27;20456;-52
2021/05/16 04:45:12;;;;;;;23.57;12.97;;;;;;;20.97;42.38;99622.47;5117605;28;20479;-55
2021/05/16 04:47:39;;;;;;;10.67;7.57;;;;;;;21.22;41.58;99622.84;5118481;28;20492;-51
2021/05/16 04:50:08;;;;;;;13.10;7.60;;;;;;;21.45;41.53;99622.34;5117647;28;20483;-52
2021/05/16 04:52:35;;;;;;;10.07;6.93;;;;;;;21.25;42.27;99614.03;5118785;28;20464;-54
2021/05/16 04:55:03;;;;;;;16.80;9.20;;;;;;;21.83;40.73;99618.94;5117807;27;20476;-55
2021/05/16 04:57:30;;;;;;;10.30;6.60;;;;;;;21.75;40.63;99621.75;5118197;28;20552;-50
2021/05/16 04:59:57;;;;;;;12.50;7.67;;;;;;;21.83;40.62;99616.31;5117542;28;20477;-54
2021/05/16 05:02:24;;;;;;;8.70;6.30;;;;;;;21.65;40.98;99617.56;5118769;28;20456;-51
2021/05/16 05:04:52;;;;;;;8.57;5.97;;;;;;;21.87;40.66;99623.22;5117471;27;20476;-49
2021/05/16 05:07:20;;;;;;;10.10;7.20;;;;;;;21.27;41.79;99625.38;5118125;28;20456;-52
2021/05/16 05:09:47;;;;;;;19.83;6.17;;;;;;;21.71;41.23;99618.34;5117244;27;20490;-52
2021/05/16 05:12:14;;;;;;;11.47;6.57;;;;;;;21.42;41.20;99614.56;5118652;28;20478;-51
2021/05/16 05:14:41;;;;;;;11.20;6.93;;;;;;;21.09;41.92;99606.50;5117232;28;20473;-51
2021/05/16 05:17:08;;;;;;;11.00;6.10;;;;;;;21.25;41.81;99611.41;5118007;28;20457;-53
2021/05/16 05:19:35;;;;;;;9.60;6.30;;;;;;;22.03;40.40;99605.34;5117079;28;20481;-51
2021/05/16 05:22:02;;;;;;;8.50;6.23;;;;;;;22.44;39.48;99610.47;5118541;28;20547;-53
2021/05/16 05:24:31;;;;;;;8.70;6.27;;;;;;;22.03;40.18;99609.72;5117186;28;20546;-52
2021/05/16 05:27:01;;;;;;;9.83;5.73;;;;;;;21.27;41.90;99610.50;5117904;28;20739;-52
2021/05/16 05:29:28;;;;;;;12.83;5.77;;;;;;;20.81;43.59;99616.63;5116734;28;20556;-50
2021/05/16 05:31:55;;;;;;;8.07;5.47;;;;;;;21.32;42.21;99613.03;5117703;28;20463;-52
2021/05/16 05:34:25;;;;;;;7.87;5.57;;;;;;;22.35;40.27;99608.09;5116775;28;20496;-52
2021/05/16 05:36:53;;;;;;;7.63;5.47;;;;;;;22.35;39.80;99610.72;5117835;28;20457;-50
2021/05/16 05:39:24;;;;;;;8.70;5.87;;;;;;;22.19;40.39;99613.72;5116698;28;20473;-50
2021/05/16 05:41:52;;;;;;;8.23;5.60;;;;;;;22.36;39.96;99607.19;5117976;28;20460;-49
2021/05/16 05:44:19;;;;;;;7.00;5.00;;;;;;;22.16;40.13;99600.69;5116608;28;20481;-54
2021/05/16 05:46:46;;;;;;;7.87;5.47;;;;;;;22.87;39.20;99612.91;5117358;28;20500;-51
2021/05/16 05:49:13;;;;;;;7.10;5.17;;;;;;;23.00;38.74;99609.03;5116170;28;20932;-50
2021/05/16 05:51:41;;;;;;;7.40;5.47;;;;;;;22.17;40.06;99605.03;5117896;28;20453;-55
2021/05/16 05:54:08;;;;;;;7.10;5.60;;;;;;;21.27;42.70;99612.28;5116639;28;20582;-53
2021/05/16 05:56:35;;;;;;;13.47;6.20;;;;;;;21.95;40.74;99602.91;5117470;28;20457;-52
2021/05/16 05:59:04;;;;;;;8.87;6.07;;;;;;;21.93;40.94;99609.97;5116146;27;20477;-54
2021/05/16 06:01:31;;;;;;;8.83;6.27;;;;;;;21.30;41.97;99602.59;5117448;28;20467;-49
2021/05/16 06:03:58;;;;;;;9.40;5.70;;;;;;;21.93;41.06;99595.97;5116568;28;20492;-52
2021/05/16 06:06:25;;;;;;;10.97;6.20;;;;;;;22.30;40.34;99604.72;5117333;28;20467;-50
2021/05/16 06:08:52;;;;;;;9.03;5.20;;;;;;;21.81;41.27;99600.63;5116090;28;20472;-49
2021/05/16 06:11:19;;;;;;;9.40;5.60;;;;;;;21.52;41.54;99601.22;5117178;28;20493;-55
2021/05/16 06:13:47;;;;;;;8.83;5.30;;;;;;;20.65;44.36;99606.41;5116198;28;20453;-51
2021/05/16 06:16:15;;;;;;;13.90;5.70;;;;;;;21.13;43.39;99608.16;5117341;28;20587;-48
2021/05/16 06:18:42;;;;;;;8.90;6.33;;;;;;;21.42;42.50;99606.69;5115667;28;20929;-51
2021/05/16 06:21:11;;;;;;;9.40;5.90;;;;;;;21.09;43.24;99603.88;5116775;28;20488;-54
2021/05/16 06:23:46;;;;;;;11.30;5.83;;;;;;;21.18;43.02;99614.16;5116034;28;20453;-52
2021/05/16 06:26:13;;;;;;;8.27;5.87;;;;;;;22.18;41.19;99608.50;5116452;28;20484;-54
2021/05/16 06:28:40;;;;;;;10.23;6.40;;;;;;;22.26;40.69;99609.19;5115205;28;20918;-53
2021/05/16 06:31:21;;;;;;;9.73;6.43;;;;;;;21.10;42.80;99608.22;5116326;28;20556;-51
2021/05/16 06:33:48;;;;;;;11.30;5.73;;;;;;;20.87;43.65;99614.78;5115922;28;20459;-53
2021/05/16 06:36:15;;;;;;;8.40;5.83;;;;;;;22.04;41.39;99616.72;5116707;28;20516;-47
2021/05/16 06:38:42;;;;;;;8.87;5.83;;;;;;;21.29;43.05;99628.84;5114660;28;20481;-49
2021/05/16 06:41:09;;;;;;;8.53;6.00;;;;;;;21.86;42.26;99626.75;5116635;28;20513;-53
2021/05/16 06:43:37;;;;;;;11.87;5.80;;;;;;;21.72;41.50;99627.06;5115346;28;20521;-52
2021/05/16 06:46:04;;;;;;;8.40;5.70;;;;;;;22.16;41.29;99621.69;5116629;28;20484;-49
2021/05/16 06:48:32;;;;;;;8.20;5.93;;;;;;;22.55;39.99;99622.53;5116044;28;20788;-51
2021/05/16 06:50:59;;;;;;;11.17;6.47;;;;;;;22.13;41.15;99616.50;5115200;28;20490;-53
2021/05/16 06:53:26;;;;;;;10.97;5.97;;;;;;;22.90;39.59;99618.94;5116399;28;20657;-49
2021/05/16 06:55:53;;;;;;;12.07;7.33;;;;;;;22.74;40.15;99617.63;5115052;28;20507;-52
2021/05/16 06:58:20;;;;;;;10.33;7.13;;;;;;;22.42;40.46;99616.66;5116237;28;20579;-50
2021/05/16 07:00:47;;;;;;;12.80;7.00;;;;;;;22.49;40.75;99608.59;5115114;28;20556;-50
2021/05/16 07:03:14;;;;;;;12.33;8.13;;;;;;;22.04;41.17;99611.47;5116247;28;20452;-49
2021/05/16 07:05:43;;;;;;;11.83;8.27;;;;;;;21.97;41.71;99621.25;5114995;28;20475;-49
2021/05/16 07:08:10;;;;;;;11.87;7.90;;;;;;;22.89;40.01;99621.59;5115791;28;20485;-53
2021/05/16 07:10:37;;;;;;;9.80;7.50;;;;;;;22.65;40.58;99623.97;5114605;28;20473;-51
2021/05/16 07:13:05;;;;;;;12.57;9.47;;;;;;;23.39;39.19;99622.88;5116268;28;20486;-48
2021/05/16 07:15:33;;;;;;;16.70;10.30;;;;;;;23.30;39.18;99621.34;5114881;28;20469;-54
2021/05/16 07:18:00;;;;;;;13.13;9.10;;;;;;;22.65;40.42;99631.88;5116076;28;20475;-52
2021/05/16 07:20:27;;;;;;;12.30;9.43;;;;;;;21.86;41.67;99624.13;5114804;28;20507;-52
2021/05/16 07:22:55;;;;;;;14.73;10.33;;;;;;;23.12;39.57;99628.00;5115983;28;20453;-51
2021/05/16 07:25:22;;;;;;;17.80;12.77;;;;;;;23.60;39.09;99622.22;5114570;28;20949;-53
2021/05/16 07:27:49;;;;;;;18.40;11.67;;;;;;;23.27;38.38;99619.66;5115693;28;20543;-50
2021/05/16 07:30:17;;;;;;;15.60;11.50;;;;;;;23.53;38.42;99619.84;5115304;28;20481;-53
2021/05/16 07:32:44;;;;;;;15.90;10.30;;;;;;;23.10;39.40;99621.91;5115866;28;20456;-53
2021/05/16 07:35:11;;;;;;;16.30;10.80;;;;;;;23.09;39.72;99620.19;5114056;28;20589;-55
2021/05/16 07:37:38;;;;;;;14.03;10.10;;;;;;;23.33;39.08;99622.13;5115392;28;20461;-54
2021/05/16 07:40:07;;;;;;;13.00;9.20;;;;;;;22.96;39.70;99631.03;5117523;28;20473;-54
2021/05/16 07:42:34;;;;;;;10.77;7.83;;;;;;;21.84;41.54;99625.94;5119962;28;20457;-53
2021/05/16 07:45:10;;;;;;;12.60;9.40;;;;;;;21.67;42.05;99623.66;5118850;28;20489;-49
2021/05/16 07:47:40;;;;;;;11.33;8.50;;;;;;;21.15;43.13;99632.59;5119499;28;20471;-53
2021/05/16 07:50:08;;;;;;;15.30;8.90;;;;;;;22.08;41.53;99627.13;5118678;28;20485;-51
2021/05/16 07:52:35;;;;;;;12.13;8.60;;;;;;;22.01;41.18;99627.28;5120272;28;20457;-49
2021/05/16 07:55:03;;;;;;;10.73;8.03;;;;;;;21.66;42.13;99633.28;5118594;28;20561;-51
2021/05/16 07:57:31;;;;;;;10.57;7.30;;;;;;;21.08;42.47;99633.63;5119540;28;20464;-51
2021/05/16 07:59:58;;;;;;;10.10;7.80;;;;;;;20.80;43.25;99636.72;5118507;28;20484;-53
2021/05/16 08:02:25;;;;;;;10.70;7.83;;;;;;;21.50;41.95;99634.50;5119897;28;20464;-51
2021/05/16 08:04:52;;;;;;;10.60;7.10;;;;;;;21.55;41.85;99637.91;5118433;28;20498;-51
2021/05/16 08:07:19;;;;;;;14.00;8.80;;;;;;;21.61;42.34;99634.28;5119532;28;20459;-51
2021/05/16 08:09:46;;;;;;;11.20;8.20;;;;;;;21.09;42.53;99629.22;5118372;28;20483;-49
2021/05/16 08:12:13;;;;;;;14.27;8.93;;;;;;;21.99;41.15;99629.94;5119668;28;20458;-50
2021/05/16 08:14:41;;;;;;;11.80;8.53;;;;;;;21.89;41.10;99624.06;5118247;27;20564;-52
2021/05/16 08:17:08;;;;;;;12.50;7.97;;;;;;;22.02;41.04;99623.75;5119396;28;20453;-52
2021/05/16 08:19:35;;;;;;;11.60;8.97;;;;;;;22.74;39.00;99625.50;5118166;28;20508;-49
2021/05/16 08:22:03;;;;;;;15.30;8.37;;;;;;;22.25;39.89;99624.06;5119468;28;20548;-52
2021/05/16 08:24:33;;;;;;;13.13;7.90;;;;;;;22.98;38.48;99621.38;5117941;28;20481;-49
2021/05/16 08:27:00;;;;;;;12.80;8.43;;;;;;;23.86;37.10;99615.31;5118604;28;20461;-49
2021/05/16 08:29:27;;;;;;;12.07;8.50;;;;;;;23.75;37.35;99606.88;5117766;28;20788;-50
2021/05/16 08:31:56;;;;;;;10.37;7.90;;;;;;;24.47;36.42;99604.59;5119440;28;20480;-51
2021/05/16 08:34:24;;;;;;;14.60;9.47;;;;;;;24.21;36.21;99603.69;5117929;28;20908;-50
2021/05/16 08:36:53;;;;;;;13.57;7.73;;;;;;;23.02;37.93;99611.63;5118792;28;20980;-49
2021/05/16 08:39:20;;;;;;;10.20;7.73;;;;;;;23.43;37.58;99616.63;5117569;28;20924;-52
2021/05/16 08:41:47;;;;;;;10.47;7.70;;;;;;;24.42;35.84;99610.03;5118991;28;20460;-53
2021/05/16 08:44:14;;;;;;;12.63;8.03;;;;;;;23.81;36.33;99611.94;5117662;28;20475;-51
2021/05/16 08:46:42;;;;;;;11.30;7.80;;;;;;;23.13;36.52;99617.41;5118654;28;20474;-49
2021/05/16 08:49:10;;;;;;;9.90;7.73;;;;;;;23.46;36.60;99611.25;5117583;28;20596;-50
2021/05/16 08:51:37;;;;;;;9.57;7.50;;;;;;;23.29;37.81;99620.47;5118650;28;20852;-53
2021/05/16 08:54:05;;;;;;;10.07;6.93;;;;;;;23.03;37.20;99624.72;5117485;28;20503;-50
2021/05/16 08:56:32;;;;;;;10.43;6.90;;;;;;;23.46;36.29;99611.25;5118447;28;20503;-53
2021/05/16 08:58:59;;;;;;;10.70;7.80;;;;;;;24.45;34.89;99609.06;5117234;28;22450;-50
2021/05/16 09:01:33;;;;;;;16.63;11.03;;;;;;;23.78;35.78;99606.78;5118582;28;20557;-53
2021/05/16 09:04:19;;;;;;;11.17;7.50;;;;;;;23.17;36.88;99603.28;5117318;28;20464;-51
2021/05/16 09:06:46;;;;;;;10.53;6.70;;;;;;;23.08;36.59;99613.22;5118231;28;20460;-52
2021/05/16 09:09:27;;;;;;;10.73;7.80;;;;;;;23.04;36.68;99615.94;5117163;28;20500;-53
2021/05/16 09:11:55;;;;;;;11.20;8.00;;;;;;;23.09;37.18;99617.56;5118622;28;20460;-51
2021/05/16 09:14:46;;;;;;;11.70;8.00;;;;;;;23.35;37.31;99613.34;5116116;28;20517;-52
2021/05/16 09:17:21;;;;;;;13.50;7.90;;;;;;;23.70;36.00;99608.78;5117875;28;20453;-49
2021/05/16 09:19:51;;;;;;;12.77;8.73;;;;;;;24.21;35.38;99603.69;5116850;28;20544;-50
2021/05/16 09:22:36;;;;;;;32.80;16.50;;;;;;;24.08;35.50;99612.00;5116363;28;20789;-51
2021/05/16 09:25:11;;;;;;;14.63;9.20;;;;;;;24.08;34.99;99605.84;5116747;28;20476;-50
2021/05/16 09:27:39;;;;;;;16.07;10.67;;;;;;;23.88;35.44;99609.97;5117676;28;20849;-53
2021/05/16 09:30:29;;;;;;;11.80;8.17;;;;;;;24.05;34.04;99608.56;5116682;28;20475;-52
2021/05/16 09:32:59;;;;;;;15.60;6.40;;;;;;;23.65;35.00;99610.69;5118159;28;20457;-51
2021/05/16 09:35:35;;;;;;;9.10;6.03;;;;;;;23.28;35.51;99612.63;5116464;28;20481;-51
2021/05/16 09:38:08;;;;;;;10.70;5.63;;;;;;;23.54;35.23;99613.66;5117410;28;20480;-55
2021/05/16 09:40:40;;;;;;;10.50;5.53;;;;;;;23.32;36.12;99620.44;5116469;28;20492;-51
2021/05/16 09:43:12;;;;;;;15.90;10.03;;;;;;;23.35;36.47;99615.97;5117738;27;20460;-52
2021/05/16 09:45:44;;;;;;;13.80;6.90;;;;;;;22.40;38.44;99624.59;5116069;28;20473;-54
2021/05/16 09:48:28;;;;;;;12.20;6.63;;;;;;;21.77;40.21;99624.34;5117154;28;20799;-54
2021/05/16 09:51:17;;;;;;;16.80;7.80;;;;;;;22.63;39.65;99625.81;5115835;28;20483;-48
2021/05/16 09:54:03;;;;;;;15.90;6.50;;;;;;;22.49;39.79;99629.63;5116561;28;20491;-50
2021/05/16 09:56:32;;;;;;;12.30;7.00;;;;;;;22.45;40.12;99622.72;5117190;28;20544;-52
2021/05/16 09:59:01;;;;;;;12.00;7.00;;;;;;;22.26;39.98;99623.16;5115799;28;20472;-52
2021/05/16 10:01:28;;;;;;;13.90;7.80;;;;;;;22.64;38.78;99620.50;5116780;28;20779;-49
2021/05/16 10:03:57;;;;;;;11.10;7.00;;;;;;;22.81;38.43;99624.44;5116480;28;20472;-52
2021/05/16 10:06:26;;;;;;;13.10;7.13;;;;;;;22.60;37.62;99623.28;5117139;28;20827;-49
2021/05/16 10:08:53;;;;;;;9.77;5.70;;;;;;;22.47;37.28;99620.94;5115898;28;20486;-51
2021/05/16 10:11:22;;;;;;;12.27;7.10;;;;;;;23.19;36.24;99611.13;5117019;28;20548;-51
2021/05/16 10:13:53;;;;;;;15.97;8.90;;;;;;;22.43;36.90;99608.75;5116321;28;20458;-47
2021/05/16 10:16:21;;;;;;;14.00;7.70;;;;;;;23.28;36.04;99604.75;5117002;28;20459;-55
2021/05/16 10:18:50;;;;;;;9.00;5.33;;;;;;;23.42;36.46;99605.22;5115940;28;20483;-52
2021/05/16 10:21:17;;;;;;;13.77;7.70;;;;;;;24.51;34.26;99598.31;5116240;28;20941;-54
2021/05/16 10:23:45;;;;;;;11.47;5.67;;;;;;;23.84;36.37;99597.84;5115894;27;20464;-51
2021/05/16 10:26:17;;;;;;;12.37;8.13;;;;;;;24.94;34.55;99593.28;5117069;28;20584;-53
2021/05/16 10:29:02;;;;;;;10.57;6.47;;;;;;;26.16;31.88;99584.22;5115601;28;20487;-54
2021/05/16 10:31:53;;;;;;;10.00;4.87;;;;;;;24.14;35.06;99593.34;5116876;28;20489;-50
2021/05/16 10:34:43;;;;;;;12.43;7.37;;;;;;;24.68;33.99;99580.09;5095701;28;20477;-53
2021/05/16 10:37:15;;;;;;;19.50;12.73;;;;;;;24.41;34.55;99582.78;5116522;28;20453;-50
2021/05/16 10:40:05;;;;;;;15.57;9.43;;;;;;;25.01;33.89;99583.41;5115244;28;20570;-50
2021/05/16 10:42:37;;;;;;;26.47;16.13;;;;;;;25.04;34.79;99583.25;5111550;28;20454;-50
2021/05/16 10:45:07;;;;;;;28.20;17.33;;;;;;;26.25;33.05;99568.00;5115386;28;20607;-54
2021/05/16 10:47:49;;;;;;;23.10;14.63;;;;;;;25.19;34.32;99569.50;5116247;28;20463;-51
2021/05/16 10:50:39;;;;;;;9.77;7.00;;;;;;;24.23;36.34;99562.34;5114846;28;20806;-55
2021/05/16 10:53:10;;;;;;;12.60;8.00;;;;;;;23.19;37.79;99571.69;5116033;28;20871;-54
2021/05/16 10:55:39;;;;;;;12.47;7.50;;;;;;;24.44;35.13;99565.16;5115130;27;20679;-51
2021/05/16 10:58:07;;;;;;;33.67;19.40;;;;;;;23.83;34.95;99573.25;5116091;28;20504;-51
2021/05/16 11:00:40;;;;;;;13.17;7.40;;;;;;;23.52;35.80;99579.50;5115015;27;20577;-53
2021/05/16 11:03:09;;;;;;;12.77;6.40;;;;;;;23.11;36.66;99584.19;5116149;28;20540;-52
2021/05/16 11:05:56;;;;;;;15.07;9.57;;;;;;;24.01;35.53;99582.31;5114723;27;20480;-54
2021/05/16 11:09:07;;;;;;;20.47;10.47;;;;;;;22.15;38.57;99598.94;5115906;28;20515;-51
2021/05/16 11:11:37;;;;;;;17.90;8.67;;;;;;;22.74;39.37;99593.97;5115925;28;20752;-55
2021/05/16 11:14:13;;;;;;;10.90;4.00;;;;;;;21.16;43.11;99609.84;5114785;27;20483;-54
2021/05/16 11:16:45;;;;;;;17.97;4.07;;;;;;;21.17;42.64;99615.06;5116003;28;20460;-53
2021/05/16 11:19:12;;;;;;;15.80;8.60;;;;;;;21.13;42.60;99612.56;5114128;27;20465;-50
2021/05/16 11:21:39;;;;;;;20.30;10.57;;;;;;;21.01;43.17;99616.25;5115796;28;20942;-50
2021/05/16 11:24:07;;;;;;;7.93;4.97;;;;;;;20.40;44.28;99616.47;5114765;28;20552;-54
2021/05/16 11:26:35;;;;;;;12.50;6.20;;;;;;;20.61;43.13;99608.22;5115831;28;20484;-55
2021/05/16 11:29:03;;;;;;;12.87;6.67;;;;;;;20.96;41.78;99610.28;5114479;28;20473;-40
2021/05/16 11:31:33;;;;;;;12.13;4.37;;;;;;;21.26;42.03;99614.03;5116028;28;20773;-49
2021/05/16 11:34:02;;;;;;;9.00;4.87;;;;;;;21.58;41.79;99615.09;5114787;28;20460;-52